sensor_id;sensor_type;location;lat;lon;timestamp;pressure;altitude;pressure_sealevel;temperature;humidity
83635;BME280;73596;49.482;11.238;2023-12-22T00:01:28;96329.19;;;3.90;78.10
83635;BME280;73596;49.482;11.238;2023-12-22T00:03:54;96349.88;;;3.98;77.80
83635;BME280;73596;49.482;11.238;2023-12-22T00:06:19;96352.66;;;3.95;78.45
83635;BME280;73596;49.482;11.238;2023-12-22T00:08:44;96362.16;;;3.93;79.54
83635;BME280;73596;49.482;11.238;2023-12-22T00:11:10;96370.84;;;3.91;79.67
83635;BME280;73596;49.482;11.238;2023-12-22T00:13:35;96372.28;;;3.95;78.87
83635;BME280;73596;49.482;11.238;2023-12-22T00:16:00;96371.34;;;3.96;78.91
83635;BME280;73596;49.482;11.238;2023-12-22T00:18:26;96374.13;;;3.93;79.05
83635;BME280;73596;49.482;11.238;2023-12-22T00:20:51;96384.78;;;3.87;79.54
83635;BME280;73596;49.482;11.238;2023-12-22T00:23:17;96387.44;;;3.85;79.40
83635;BME280;73596;49.482;11.238;2023-12-22T00:25:42;96377.34;;;3.83;79.63
83635;BME280;73596;49.482;11.238;2023-12-22T00:28:08;96377.81;;;3.89;79.82
83635;BME280;73596;49.482;11.238;2023-12-22T00:30:33;96391.13;;;3.81;81.26
83635;BME280;73596;49.482;11.238;2023-12-22T00:32:58;96388.59;;;3.81;80.42
83635;BME280;73596;49.482;11.238;2023-12-22T00:35:24;96381.91;;;3.91;80.40
83635;BME280;73596;49.482;11.238;2023-12-22T00:37:49;96377.34;;;3.83;81.31
83635;BME280;73596;49.482;11.238;2023-12-22T00:40:14;96377.34;;;3.83;80.39
83635;BME280;73596;49.482;11.238;2023-12-22T00:42:39;96380.44;;;4.00;79.72
83635;BME280;73596;49.482;11.238;2023-12-22T00:45:05;96377.41;;;3.95;79.89
83635;BME280;73596;49.482;11.238;2023-12-22T00:47:31;96394.00;;;4.00;79.80
83635;BME280;73596;49.482;11.238;2023-12-22T00:49:56;96402.53;;;3.88;80.75
83635;BME280;73596;49.482;11.238;2023-12-22T00:52:22;96393.28;;;3.74;82.14
83635;BME280;73596;49.482;11.238;2023-12-22T00:54:47;96403.63;;;3.73;81.92
83635;BME280;73596;49.482;11.238;2023-12-22T00:57:12;96395.44;;;3.80;81.89
83635;BME280;73596;49.482;11.238;2023-12-22T00:59:38;96393.84;;;3.67;82.31
83635;BME280;73596;49.482;11.238;2023-12-22T01:02:07;96399.97;;;3.64;83.03
83635;BME280;73596;49.482;11.238;2023-12-22T01:04:32;96407.25;;;3.58;83.67
83635;BME280;73596;49.482;11.238;2023-12-22T01:06:58;96401.13;;;3.60;83.30
83635;BME280;73596;49.482;11.238;2023-12-22T01:09:23;96391.13;;;3.57;83.50
83635;BME280;73596;49.482;11.238;2023-12-22T01:11:48;96398.97;;;3.54;84.05
83635;BME280;73596;49.482;11.238;2023-12-22T01:14:14;96391.94;;;3.58;83.79
83635;BME280;73596;49.482;11.238;2023-12-22T01:16:39;96411.34;;;3.60;84.08
83635;BME280;73596;49.482;11.238;2023-12-22T01:19:04;96397.66;;;3.61;83.33
83635;BME280;73596;49.482;11.238;2023-12-22T01:21:30;96380.91;;;3.57;83.76
83635;BME280;73596;49.482;11.238;2023-12-22T01:23:56;96382.56;;;3.58;84.03
83635;BME280;73596;49.482;11.238;2023-12-22T01:26:21;96398.91;;;3.56;85.00
83635;BME280;73596;49.482;11.238;2023-12-22T01:28:46;96404.09;;;3.54;84.70
83635;BME280;73596;49.482;11.238;2023-12-22T01:31:11;96396.34;;;3.56;84.93
83635;BME280;73596;49.482;11.238;2023-12-22T01:33:36;96401.66;;;3.53;85.24
83635;BME280;73596;49.482;11.238;2023-12-22T01:36:02;96401.44;;;3.56;84.78
83635;BME280;73596;49.482;11.238;2023-12-22T01:38:28;96416.75;;;3.56;84.83
83635;BME280;73596;49.482;11.238;2023-12-22T01:40:53;96421.34;;;3.63;84.47
83635;BME280;73596;49.482;11.238;2023-12-22T01:43:18;96420.03;;;3.58;84.99
83635;BME280;73596;49.482;11.238;2023-12-22T01:45:48;96426.75;;;3.59;84.21
83635;BME280;73596;49.482;11.238;2023-12-22T01:48:14;96438.91;;;3.55;84.76
83635;BME280;73596;49.482;11.238;2023-12-22T01:50:39;96439.94;;;3.53;85.28
83635;BME280;73596;49.482;11.238;2023-12-22T01:53:05;96437.88;;;3.58;85.58
83635;BME280;73596;49.482;11.238;2023-12-22T01:55:30;96433.00;;;3.55;86.00
83635;BME280;73596;49.482;11.238;2023-12-22T01:57:56;96432.16;;;3.54;85.46
83635;BME280;73596;49.482;11.238;2023-12-22T02:00:21;96434.19;;;3.62;86.05
83635;BME280;73596;49.482;11.238;2023-12-22T02:02:47;96427.34;;;3.62;85.98
83635;BME280;73596;49.482;11.238;2023-12-22T02:05:12;96422.66;;;3.69;85.50
83635;BME280;73596;49.482;11.238;2023-12-22T02:07:41;96412.97;;;3.61;86.07
83635;BME280;73596;49.482;11.238;2023-12-22T02:10:10;96388.69;;;3.56;85.69
83635;BME280;73596;49.482;11.238;2023-12-22T02:12:36;96387.88;;;3.55;85.73
83635;BME280;73596;49.482;11.238;2023-12-22T02:15:02;96393.19;;;3.52;85.99
83635;BME280;73596;49.482;11.238;2023-12-22T02:20:11;96412.25;;;3.59;86.12
83635;BME280;73596;49.482;11.238;2023-12-22T02:22:36;96409.09;;;3.56;86.34
83635;BME280;73596;49.482;11.238;2023-12-22T02:25:02;96399.47;;;3.59;86.25
83635;BME280;73596;49.482;11.238;2023-12-22T02:29:58;96387.81;;;3.68;85.37
83635;BME280;73596;49.482;11.238;2023-12-22T02:32:28;96391.19;;;3.68;85.81
83635;BME280;73596;49.482;11.238;2023-12-22T02:34:56;96393.34;;;3.62;85.98
83635;BME280;73596;49.482;11.238;2023-12-22T02:37:22;96408.25;;;3.68;85.77
83635;BME280;73596;49.482;11.238;2023-12-22T02:39:50;96398.34;;;3.63;86.14
83635;BME280;73596;49.482;11.238;2023-12-22T02:42:17;96404.16;;;3.65;86.04
83635;BME280;73596;49.482;11.238;2023-12-22T02:44:42;96411.63;;;3.68;85.66
83635;BME280;73596;49.482;11.238;2023-12-22T02:47:07;96407.34;;;3.69;85.86
83635;BME280;73596;49.482;11.238;2023-12-22T02:49:33;96410.38;;;3.74;85.06
83635;BME280;73596;49.482;11.238;2023-12-22T02:51:58;96411.63;;;3.68;85.11
83635;BME280;73596;49.482;11.238;2023-12-22T02:54:23;96422.84;;;3.66;85.42
83635;BME280;73596;49.482;11.238;2023-12-22T02:56:48;96421.72;;;3.70;84.30
83635;BME280;73596;49.482;11.238;2023-12-22T02:59:14;96416.59;;;3.70;84.61
83635;BME280;73596;49.482;11.238;2023-12-22T03:01:39;96426.94;;;3.68;85.03
83635;BME280;73596;49.482;11.238;2023-12-22T03:04:04;96422.94;;;3.64;85.67
83635;BME280;73596;49.482;11.238;2023-12-22T03:06:30;96431.44;;;3.65;86.25
83635;BME280;73596;49.482;11.238;2023-12-22T03:08:56;96431.00;;;3.71;85.78
83635;BME280;73596;49.482;11.238;2023-12-22T03:11:21;96421.91;;;3.67;85.76
83635;BME280;73596;49.482;11.238;2023-12-22T03:13:47;96436.28;;;3.80;84.85
83635;BME280;73596;49.482;11.238;2023-12-22T03:16:12;96439.56;;;3.70;85.12
83635;BME280;73596;49.482;11.238;2023-12-22T03:18:38;96435.84;;;3.63;85.76
83635;BME280;73596;49.482;11.238;2023-12-22T03:21:04;96461.34;;;3.63;85.05
83635;BME280;73596;49.482;11.238;2023-12-22T03:23:29;96455.44;;;3.62;84.87
83635;BME280;73596;49.482;11.238;2023-12-22T03:25:54;96456.63;;;3.69;84.62
83635;BME280;73596;49.482;11.238;2023-12-22T03:28:20;96459.50;;;3.65;85.03
83635;BME280;73596;49.482;11.238;2023-12-22T03:30:45;96452.78;;;3.64;84.61
83635;BME280;73596;49.482;11.238;2023-12-22T03:33:10;96459.63;;;3.63;83.90
83635;BME280;73596;49.482;11.238;2023-12-22T03:35:35;96450.31;;;3.62;84.39
83635;BME280;73596;49.482;11.238;2023-12-22T03:38:01;96455.34;;;3.64;83.54
83635;BME280;73596;49.482;11.238;2023-12-22T03:40:26;96442.78;;;3.61;84.03
83635;BME280;73596;49.482;11.238;2023-12-22T03:42:51;96436.03;;;3.60;84.72
83635;BME280;73596;49.482;11.238;2023-12-22T03:45:16;96452.50;;;3.56;85.01
83635;BME280;73596;49.482;11.238;2023-12-22T03:47:41;96443.31;;;3.53;85.73
83635;BME280;73596;49.482;11.238;2023-12-22T03:50:07;96457.94;;;3.51;85.71
83635;BME280;73596;49.482;11.238;2023-12-22T03:52:33;96441.88;;;3.49;85.56
83635;BME280;73596;49.482;11.238;2023-12-22T03:54:58;96438.91;;;3.55;84.89
83635;BME280;73596;49.482;11.238;2023-12-22T03:57:24;96435.44;;;3.56;84.66
83635;BME280;73596;49.482;11.238;2023-12-22T03:59:49;96440.88;;;3.39;85.49
83635;BME280;73596;49.482;11.238;2023-12-22T04:02:14;96437.53;;;3.39;84.58
83635;BME280;73596;49.482;11.238;2023-12-22T04:04:40;96430.09;;;3.36;85.34
83635;BME280;73596;49.482;11.238;2023-12-22T04:07:05;96429.16;;;3.37;84.60
83635;BME280;73596;49.482;11.238;2023-12-22T04:09:30;96422.59;;;3.45;84.14
83635;BME280;73596;49.482;11.238;2023-12-22T04:11:55;96408.53;;;3.40;83.93
83635;BME280;73596;49.482;11.238;2023-12-22T04:14:21;96416.31;;;3.38;84.27
83635;BME280;73596;49.482;11.238;2023-12-22T04:16:46;96415.97;;;3.43;83.58
83635;BME280;73596;49.482;11.238;2023-12-22T04:19:12;96411.41;;;3.35;83.14
83635;BME280;73596;49.482;11.238;2023-12-22T04:21:37;96418.69;;;3.29;83.75
83635;BME280;73596;49.482;11.238;2023-12-22T04:24:02;96435.81;;;3.27;83.84
83635;BME280;73596;49.482;11.238;2023-12-22T04:26:28;96431.13;;;3.33;82.59
83635;BME280;73596;49.482;11.238;2023-12-22T04:28:53;96430.09;;;3.36;82.90
83635;BME280;73596;49.482;11.238;2023-12-22T04:31:18;96428.25;;;3.38;82.89
83635;BME280;73596;49.482;11.238;2023-12-22T04:33:43;96433.47;;;3.36;82.04
83635;BME280;73596;49.482;11.238;2023-12-22T04:36:09;96436.81;;;3.37;81.78
83635;BME280;73596;49.482;11.238;2023-12-22T04:38:34;96432.47;;;3.26;81.80
83635;BME280;73596;49.482;11.238;2023-12-22T04:41:00;96453.63;;;3.39;81.67
83635;BME280;73596;49.482;11.238;2023-12-22T04:43:25;96455.19;;;3.29;82.02
83635;BME280;73596;49.482;11.238;2023-12-22T04:45:50;96455.31;;;3.28;82.64
83635;BME280;73596;49.482;11.238;2023-12-22T04:48:16;96452.13;;;3.24;81.70
83635;BME280;73596;49.482;11.238;2023-12-22T04:50:41;96454.47;;;3.27;82.18
83635;BME280;73596;49.482;11.238;2023-12-22T04:53:06;96473.47;;;3.23;82.38
83635;BME280;73596;49.482;11.238;2023-12-22T04:55:31;96476.09;;;3.34;82.14
83635;BME280;73596;49.482;11.238;2023-12-22T04:57:57;96481.22;;;3.34;82.35
83635;BME280;73596;49.482;11.238;2023-12-22T05:00:22;96485.53;;;3.34;82.16
83635;BME280;73596;49.482;11.238;2023-12-22T05:02:47;96485.22;;;3.26;82.93
83635;BME280;73596;49.482;11.238;2023-12-22T05:05:12;96485.19;;;3.38;82.05
83635;BME280;73596;49.482;11.238;2023-12-22T05:07:38;96472.34;;;3.27;83.07
83635;BME280;73596;49.482;11.238;2023-12-22T05:10:03;96477.97;;;3.19;83.21
83635;BME280;73596;49.482;11.238;2023-12-22T05:12:29;96469.28;;;3.22;83.35
83635;BME280;73596;49.482;11.238;2023-12-22T05:14:54;96475.50;;;3.31;83.18
83635;BME280;73596;49.482;11.238;2023-12-22T05:17:19;96486.53;;;3.31;83.02
83635;BME280;73596;49.482;11.238;2023-12-22T05:19:45;96489.91;;;3.19;83.41
83635;BME280;73596;49.482;11.238;2023-12-22T05:22:10;96485.22;;;3.26;83.34
83635;BME280;73596;49.482;11.238;2023-12-22T05:24:37;96499.69;;;3.12;83.54
83635;BME280;73596;49.482;11.238;2023-12-22T05:27:02;96506.84;;;3.20;83.14
83635;BME280;73596;49.482;11.238;2023-12-22T05:29:28;96507.75;;;3.19;82.43
83635;BME280;73596;49.482;11.238;2023-12-22T05:31:53;96502.56;;;3.08;83.69
83635;BME280;73596;49.482;11.238;2023-12-22T05:34:18;96507.66;;;3.08;83.20
83635;BME280;73596;49.482;11.238;2023-12-22T05:36:43;96492.06;;;3.12;83.86
83635;BME280;73596;49.482;11.238;2023-12-22T05:39:08;96485.31;;;3.24;82.80
83635;BME280;73596;49.482;11.238;2023-12-22T05:41:35;96504.69;;;3.14;83.10
83635;BME280;73596;49.482;11.238;2023-12-22T05:44:03;96501.63;;;3.09;83.41
83635;BME280;73596;49.482;11.238;2023-12-22T05:46:29;96504.41;;;3.18;82.70
83635;BME280;73596;49.482;11.238;2023-12-22T05:48:54;96526.75;;;3.28;82.65
83635;BME280;73596;49.482;11.238;2023-12-22T05:51:22;96511.63;;;3.25;82.41
83635;BME280;73596;49.482;11.238;2023-12-22T05:53:48;96507.03;;;3.17;83.68
83635;BME280;73596;49.482;11.238;2023-12-22T05:56:19;96508.56;;;3.19;83.80
83635;BME280;73596;49.482;11.238;2023-12-22T05:58:45;96510.59;;;3.27;83.74
83635;BME280;73596;49.482;11.238;2023-12-22T06:01:15;96515.41;;;3.19;83.80
83635;BME280;73596;49.482;11.238;2023-12-22T06:03:40;96505.44;;;3.16;84.55
83635;BME280;73596;49.482;11.238;2023-12-22T06:06:06;96501.03;;;3.18;85.36
83635;BME280;73596;49.482;11.238;2023-12-22T06:08:31;96496.00;;;3.16;84.32
83635;BME280;73596;49.482;11.238;2023-12-22T06:10:56;96497.84;;;3.14;84.54
83635;BME280;73596;49.482;11.238;2023-12-22T06:13:21;96490.41;;;3.11;84.57
83635;BME280;73596;49.482;11.238;2023-12-22T06:15:47;96481.66;;;3.03;84.86
83635;BME280;73596;49.482;11.238;2023-12-22T06:18:12;96493.28;;;3.07;84.09
83635;BME280;73596;49.482;11.238;2023-12-22T06:20:38;96500.53;;;3.00;84.46
83635;BME280;73596;49.482;11.238;2023-12-22T06:23:03;96501.22;;;2.90;85.21
83635;BME280;73596;49.482;11.238;2023-12-22T06:25:29;96501.03;;;2.93;84.60
83635;BME280;73596;49.482;11.238;2023-12-22T06:27:54;96509.50;;;2.93;84.41
83635;BME280;73596;49.482;11.238;2023-12-22T06:30:20;96524.38;;;2.87;84.21
83635;BME280;73596;49.482;11.238;2023-12-22T06:32:45;96507.72;;;2.81;84.41
83635;BME280;73596;49.482;11.238;2023-12-22T06:35:10;96524.81;;;2.93;84.41
83635;BME280;73596;49.482;11.238;2023-12-22T06:37:35;96526.63;;;2.91;84.36
83635;BME280;73596;49.482;11.238;2023-12-22T06:40:01;96531.00;;;2.89;84.00
83635;BME280;73596;49.482;11.238;2023-12-22T06:42:26;96527.63;;;2.89;84.11
83635;BME280;73596;49.482;11.238;2023-12-22T06:44:51;96527.94;;;2.97;83.80
83635;BME280;73596;49.482;11.238;2023-12-22T06:47:16;96509.00;;;2.88;84.63
83635;BME280;73596;49.482;11.238;2023-12-22T06:49:42;96523.03;;;2.81;85.63
83635;BME280;73596;49.482;11.238;2023-12-22T06:52:07;96529.84;;;2.68;86.53
83635;BME280;73596;49.482;11.238;2023-12-22T06:54:32;96539.75;;;2.73;86.49
83635;BME280;73596;49.482;11.238;2023-12-22T06:56:58;96544.72;;;2.62;87.20
83635;BME280;73596;49.482;11.238;2023-12-22T06:59:24;96551.97;;;2.68;87.45
83635;BME280;73596;49.482;11.238;2023-12-22T07:01:49;96554.81;;;2.63;87.68
83635;BME280;73596;49.482;11.238;2023-12-22T07:04:14;96557.25;;;2.65;87.93
83635;BME280;73596;49.482;11.238;2023-12-22T07:06:39;96553.81;;;2.66;87.63
83635;BME280;73596;49.482;11.238;2023-12-22T07:11:40;96550.28;;;2.54;88.11
83635;BME280;73596;49.482;11.238;2023-12-22T07:14:06;96548.53;;;2.42;88.38
83635;BME280;73596;49.482;11.238;2023-12-22T07:16:32;96565.91;;;2.35;88.91
83635;BME280;73596;49.482;11.238;2023-12-22T07:18:57;96554.16;;;2.47;88.70
83635;BME280;73596;49.482;11.238;2023-12-22T07:21:23;96545.50;;;2.49;88.99
83635;BME280;73596;49.482;11.238;2023-12-22T07:23:48;96544.16;;;2.44;88.76
83635;BME280;73596;49.482;11.238;2023-12-22T07:26:13;96542.50;;;2.43;89.34
83635;BME280;73596;49.482;11.238;2023-12-22T07:28:38;96549.53;;;2.39;89.31
83635;BME280;73596;49.482;11.238;2023-12-22T07:31:04;96553.22;;;2.48;89.38
83635;BME280;73596;49.482;11.238;2023-12-22T07:33:30;96565.78;;;2.51;89.34
83635;BME280;73596;49.482;11.238;2023-12-22T07:35:55;96571.22;;;2.59;88.89
83635;BME280;73596;49.482;11.238;2023-12-22T07:38:21;96563.91;;;2.67;88.67
83635;BME280;73596;49.482;11.238;2023-12-22T07:40:46;96555.53;;;2.65;88.97
83635;BME280;73596;49.482;11.238;2023-12-22T07:43:12;96571.34;;;2.70;89.18
83635;BME280;73596;49.482;11.238;2023-12-22T07:45:38;96580.13;;;2.79;88.96
83635;BME280;73596;49.482;11.238;2023-12-22T07:48:03;96573.56;;;2.62;89.97
83635;BME280;73596;49.482;11.238;2023-12-22T07:50:29;96576.84;;;2.64;90.68
83635;BME280;73596;49.482;11.238;2023-12-22T07:52:54;96582.03;;;2.63;90.96
83635;BME280;73596;49.482;11.238;2023-12-22T07:55:19;96579.09;;;2.69;91.72
83635;BME280;73596;49.482;11.238;2023-12-22T07:57:45;96588.75;;;2.90;91.62
83635;BME280;73596;49.482;11.238;2023-12-22T08:00:11;96591.63;;;2.98;91.65
83635;BME280;73596;49.482;11.238;2023-12-22T08:02:36;96598.34;;;2.99;91.65
83635;BME280;73596;49.482;11.238;2023-12-22T08:05:03;96607.84;;;3.10;91.42
83635;BME280;73596;49.482;11.238;2023-12-22T08:07:28;96600.72;;;3.15;91.24
83635;BME280;73596;49.482;11.238;2023-12-22T08:09:55;96599.00;;;3.15;91.35
83635;BME280;73596;49.482;11.238;2023-12-22T08:12:20;96612.66;;;3.14;92.01
83635;BME280;73596;49.482;11.238;2023-12-22T08:14:45;96628.41;;;3.21;91.75
83635;BME280;73596;49.482;11.238;2023-12-22T08:17:11;96629.41;;;3.18;91.86
83635;BME280;73596;49.482;11.238;2023-12-22T08:19:38;96632.69;;;3.33;91.98
83635;BME280;73596;49.482;11.238;2023-12-22T08:22:03;96633.91;;;3.28;90.74
83635;BME280;73596;49.482;11.238;2023-12-22T08:24:29;96629.31;;;3.33;90.79
83635;BME280;73596;49.482;11.238;2023-12-22T08:26:54;96639.22;;;3.37;91.16
83635;BME280;73596;49.482;11.238;2023-12-22T08:29:19;96639.63;;;3.31;90.86
83635;BME280;73596;49.482;11.238;2023-12-22T08:31:45;96641.03;;;3.22;90.91
83635;BME280;73596;49.482;11.238;2023-12-22T08:34:10;96642.47;;;3.27;91.83
83635;BME280;73596;49.482;11.238;2023-12-22T08:36:35;96660.47;;;3.38;91.33
83635;BME280;73596;49.482;11.238;2023-12-22T08:39:01;96655.88;;;3.43;91.24
83635;BME280;73596;49.482;11.238;2023-12-22T08:41:26;96659.44;;;3.53;91.12
83635;BME280;73596;49.482;11.238;2023-12-22T08:43:52;96668.47;;;3.71;90.73
83635;BME280;73596;49.482;11.238;2023-12-22T08:46:17;96675.81;;;3.63;90.06
83635;BME280;73596;49.482;11.238;2023-12-22T08:48:43;96665.78;;;3.60;90.46
83635;BME280;73596;49.482;11.238;2023-12-22T08:51:08;96668.03;;;3.52;90.96
83635;BME280;73596;49.482;11.238;2023-12-22T08:53:34;96689.25;;;3.40;91.99
83635;BME280;73596;49.482;11.238;2023-12-22T08:56:02;96680.38;;;3.45;91.84
83635;BME280;73596;49.482;11.238;2023-12-22T08:58:28;96692.25;;;3.59;91.81
83635;BME280;73596;49.482;11.238;2023-12-22T09:00:53;96689.97;;;3.54;91.71
83635;BME280;73596;49.482;11.238;2023-12-22T09:03:19;96687.22;;;3.57;91.39
83635;BME280;73596;49.482;11.238;2023-12-22T09:05:44;96688.56;;;3.63;91.40
83635;BME280;73596;49.482;11.238;2023-12-22T09:08:09;96676.50;;;3.65;91.87
83635;BME280;73596;49.482;11.238;2023-12-22T09:10:34;96672.22;;;3.65;91.11
83635;BME280;73596;49.482;11.238;2023-12-22T09:13:00;96666.50;;;3.74;90.91
83635;BME280;73596;49.482;11.238;2023-12-22T09:15:26;96689.59;;;3.73;90.69
83635;BME280;73596;49.482;11.238;2023-12-22T09:17:52;96685.81;;;3.78;90.33
83635;BME280;73596;49.482;11.238;2023-12-22T09:20:18;96682.06;;;3.84;90.19
83635;BME280;73596;49.482;11.238;2023-12-22T09:22:43;96681.53;;;3.79;90.60
83635;BME280;73596;49.482;11.238;2023-12-22T09:25:09;96682.06;;;3.84;90.43
83635;BME280;73596;49.482;11.238;2023-12-22T09:27:34;96683.88;;;3.82;90.49
83635;BME280;73596;49.482;11.238;2023-12-22T09:29:59;96686.22;;;3.85;90.93
83635;BME280;73596;49.482;11.238;2023-12-22T09:32:25;96680.22;;;3.86;91.04
83635;BME280;73596;49.482;11.238;2023-12-22T09:34:51;96699.81;;;3.85;91.59
83635;BME280;73596;49.482;11.238;2023-12-22T09:37:17;96698.16;;;3.84;91.43
83635;BME280;73596;49.482;11.238;2023-12-22T09:39:42;96705.56;;;3.89;91.76
83635;BME280;73596;49.482;11.238;2023-12-22T09:42:07;96703.09;;;3.88;91.91
83635;BME280;73596;49.482;11.238;2023-12-22T09:44:33;96702.06;;;4.03;91.40
83635;BME280;73596;49.482;11.238;2023-12-22T09:46:59;96707.09;;;3.92;92.20
83635;BME280;73596;49.482;11.238;2023-12-22T09:49:25;96705.03;;;3.97;92.18
83635;BME280;73596;49.482;11.238;2023-12-22T09:51:53;96701.47;;;3.99;91.42
83635;BME280;73596;49.482;11.238;2023-12-22T09:54:19;96708.41;;;3.97;91.81
83635;BME280;73596;49.482;11.238;2023-12-22T09:56:44;96695.53;;;3.99;91.73
83635;BME280;73596;49.482;11.238;2023-12-22T09:59:12;96688.06;;;3.96;91.89
83635;BME280;73596;49.482;11.238;2023-12-22T10:01:45;96672.75;;;3.96;92.04
83635;BME280;73596;49.482;11.238;2023-12-22T10:04:11;96680.84;;;4.02;91.73
83635;BME280;73596;49.482;11.238;2023-12-22T10:06:37;96667.75;;;3.94;91.69
83635;BME280;73596;49.482;11.238;2023-12-22T10:09:04;96680.84;;;4.02;91.72
83635;BME280;73596;49.482;11.238;2023-12-22T10:11:31;96679.69;;;4.06;91.15
83635;BME280;73596;49.482;11.238;2023-12-22T10:13:57;96682.44;;;4.03;90.96
83635;BME280;73596;49.482;11.238;2023-12-22T10:16:24;96695.22;;;4.03;91.11
83635;BME280;73596;49.482;11.238;2023-12-22T10:18:49;96693.69;;;4.01;90.89
83635;BME280;73596;49.482;11.238;2023-12-22T10:21:15;96689.28;;;3.90;91.02
83635;BME280;73596;49.482;11.238;2023-12-22T10:23:40;96676.75;;;3.87;90.93
83635;BME280;73596;49.482;11.238;2023-12-22T10:26:05;96676.13;;;3.71;91.52
83635;BME280;73596;49.482;11.238;2023-12-22T10:28:31;96678.16;;;3.66;92.02
83635;BME280;73596;49.482;11.238;2023-12-22T10:30:56;96679.88;;;3.65;91.86
83635;BME280;73596;49.482;11.238;2023-12-22T10:33:24;96678.97;;;3.66;92.20
83635;BME280;73596;49.482;11.238;2023-12-22T10:35:49;96681.72;;;3.63;92.44
83635;BME280;73596;49.482;11.238;2023-12-22T10:38:18;96661.31;;;3.63;91.76
83635;BME280;73596;49.482;11.238;2023-12-22T10:40:45;96656.41;;;3.60;92.24
83635;BME280;73596;49.482;11.238;2023-12-22T10:43:11;96654.03;;;3.57;92.59
83635;BME280;73596;49.482;11.238;2023-12-22T10:45:36;96657.63;;;3.55;92.51
83635;BME280;73596;49.482;11.238;2023-12-22T10:48:01;96644.66;;;3.58;93.44
83635;BME280;73596;49.482;11.238;2023-12-22T10:50:28;96639.16;;;3.51;93.01
83635;BME280;73596;49.482;11.238;2023-12-22T10:52:54;96641.28;;;3.45;93.46
83635;BME280;73596;49.482;11.238;2023-12-22T10:55:19;96637.09;;;3.56;93.56
83635;BME280;73596;49.482;11.238;2023-12-22T10:57:47;96628.00;;;3.52;93.92
83635;BME280;73596;49.482;11.238;2023-12-22T11:00:15;96623.53;;;3.56;93.13
83635;BME280;73596;49.482;11.238;2023-12-22T11:02:42;96623.09;;;3.49;93.71
83635;BME280;73596;49.482;11.238;2023-12-22T11:05:10;96626.97;;;3.55;93.55
83635;BME280;73596;49.482;11.238;2023-12-22T11:07:37;96621.06;;;3.54;93.12
83635;BME280;73596;49.482;11.238;2023-12-22T11:10:05;96613.50;;;3.53;93.52
83635;BME280;73596;49.482;11.238;2023-12-22T11:12:38;96618.50;;;3.54;93.68
83635;BME280;73596;49.482;11.238;2023-12-22T11:15:04;96619.94;;;3.58;93.54
83635;BME280;73596;49.482;11.238;2023-12-22T11:17:33;96621.28;;;3.64;93.73
83635;BME280;73596;49.482;11.238;2023-12-22T11:19:59;96597.88;;;3.70;93.77
83635;BME280;73596;49.482;11.238;2023-12-22T11:22:25;96599.72;;;3.80;93.56
83635;BME280;73596;49.482;11.238;2023-12-22T11:24:51;96591.94;;;3.82;93.65
83635;BME280;73596;49.482;11.238;2023-12-22T11:27:17;96595.72;;;3.89;93.87
83635;BME280;73596;49.482;11.238;2023-12-22T11:29:49;96598.38;;;3.88;93.48
83635;BME280;73596;49.482;11.238;2023-12-22T11:32:17;96616.03;;;3.91;94.19
83635;BME280;73596;49.482;11.238;2023-12-22T11:34:44;96599.28;;;3.99;93.90
83635;BME280;73596;49.482;11.238;2023-12-22T11:37:14;96593.34;;;3.99;93.76
83635;BME280;73596;49.482;11.238;2023-12-22T11:39:40;96593.84;;;4.04;94.08
83635;BME280;73596;49.482;11.238;2023-12-22T11:42:13;96575.44;;;4.11;93.70
83635;BME280;73596;49.482;11.238;2023-12-22T11:44:39;96563.91;;;4.06;92.90
83635;BME280;73596;49.482;11.238;2023-12-22T11:47:09;96560.78;;;3.90;92.88
83635;BME280;73596;49.482;11.238;2023-12-22T11:49:36;96550.88;;;3.85;93.82
83635;BME280;73596;49.482;11.238;2023-12-22T11:52:15;96536.00;;;3.79;93.87
83635;BME280;73596;49.482;11.238;2023-12-22T11:54:44;96531.63;;;4.05;94.38
83635;BME280;73596;49.482;11.238;2023-12-22T11:57:39;96531.59;;;4.17;94.11
83635;BME280;73596;49.482;11.238;2023-12-22T12:00:06;96528.53;;;4.12;94.08
83635;BME280;73596;49.482;11.238;2023-12-22T12:02:34;96521.13;;;4.20;93.43
83635;BME280;73596;49.482;11.238;2023-12-22T12:05:00;96519.94;;;4.13;94.39
83635;BME280;73596;49.482;11.238;2023-12-22T12:07:43;96512.59;;;4.09;94.25
83635;BME280;73596;49.482;11.238;2023-12-22T12:13:12;96500.16;;;4.28;94.46
83635;BME280;73596;49.482;11.238;2023-12-22T12:15:41;96503.59;;;4.39;93.98
83635;BME280;73596;49.482;11.238;2023-12-22T12:18:06;96494.13;;;4.53;93.80
83635;BME280;73596;49.482;11.238;2023-12-22T12:20:32;96508.31;;;4.57;93.46
83635;BME280;73596;49.482;11.238;2023-12-22T12:22:58;96485.88;;;4.60;92.98
83635;BME280;73596;49.482;11.238;2023-12-22T12:25:24;96474.25;;;4.56;93.41
83635;BME280;73596;49.482;11.238;2023-12-22T12:30:28;96457.16;;;4.57;93.82
83635;BME280;73596;49.482;11.238;2023-12-22T12:32:54;96451.38;;;4.66;94.31
83635;BME280;73596;49.482;11.238;2023-12-22T12:35:19;96431.53;;;4.80;93.75
83635;BME280;73596;49.482;11.238;2023-12-22T12:37:44;96436.97;;;4.76;93.52
83635;BME280;73596;49.482;11.238;2023-12-22T12:40:11;96439.34;;;4.90;93.48
83635;BME280;73596;49.482;11.238;2023-12-22T12:42:36;96433.88;;;4.94;93.62
83635;BME280;73596;49.482;11.238;2023-12-22T12:45:04;96426.06;;;4.96;93.34
83635;BME280;73596;49.482;11.238;2023-12-22T12:47:30;96410.38;;;4.89;92.97
83635;BME280;73596;49.482;11.238;2023-12-22T12:50:01;96417.81;;;5.03;93.13
83635;BME280;73596;49.482;11.238;2023-12-22T12:52:28;96423.53;;;5.07;93.34
83635;BME280;73596;49.482;11.238;2023-12-22T12:54:53;96417.97;;;5.13;93.11
83635;BME280;73596;49.482;11.238;2023-12-22T12:57:19;96391.66;;;5.11;92.99
83635;BME280;73596;49.482;11.238;2023-12-22T12:59:49;96385.47;;;5.13;93.05
83635;BME280;73596;49.482;11.238;2023-12-22T13:02:18;96395.84;;;5.12;93.34
83635;BME280;73596;49.482;11.238;2023-12-22T13:04:45;96386.91;;;5.18;93.59
83635;BME280;73596;49.482;11.238;2023-12-22T13:07:10;96387.31;;;5.45;92.57